sensor_id;sensor_type;location;lat;lon;timestamp;P1;durP1;ratioP1;P2;durP2;ratioP2
28577;SDS011;15769;52.248;15.818;2022-11-02T00:01:16;9.40;;;6.95;;
28577;SDS011;15769;52.248;15.818;2022-11-02T00:06:21;11.23;;;8.00;;
28577;SDS011;15769;52.248;15.818;2022-11-02T00:11:24;12.40;;;8.70;;
28577;SDS011;15769;52.248;15.818;2022-11-02T00:16:26;15.38;;;9.15;;
28577;SDS011;15769;52.248;15.818;2022-11-02T00:21:28;15.05;;;9.13;;
28577;SDS011;15769;52.248;15.818;2022-11-02T00:26:31;11.23;;;8.68;;
28577;SDS011;15769;52.248;15.818;2022-11-02T00:31:35;15.18;;;10.20;;
28577;SDS011;15769;52.248;15.818;2022-11-02T00:36:37;14.07;;;9.73;;
28577;SDS011;15769;52.248;15.818;2022-11-02T00:41:40;15.32;;;9.77;;
28577;SDS011;15769;52.248;15.818;2022-11-02T00:46:43;14.75;;;9.95;;
28577;SDS011;15769;52.248;15.818;2022-11-02T00:51:45;15.27;;;9.02;;
28577;SDS011;15769;52.248;15.818;2022-11-02T00:56:50;15.70;;;9.93;;
28577;SDS011;15769;52.248;15.818;2022-11-02T01:01:52;16.70;;;9.53;;
28577;SDS011;15769;52.248;15.818;2022-11-02T01:06:58;14.45;;;9.48;;
28577;SDS011;15769;52.248;15.818;2022-11-02T01:12:00;14.30;;;9.50;;
28577;SDS011;15769;52.248;15.818;2022-11-02T01:17:02;15.93;;;10.95;;
28577;SDS011;15769;52.248;15.818;2022-11-02T01:22:05;14.32;;;10.18;;
28577;SDS011;15769;52.248;15.818;2022-11-02T01:27:08;13.48;;;9.27;;
28577;SDS011;15769;52.248;15.818;2022-11-02T01:32:14;16.77;;;11.68;;
28577;SDS011;15769;52.248;15.818;2022-11-02T01:37:16;17.08;;;11.80;;
28577;SDS011;15769;52.248;15.818;2022-11-02T01:42:19;20.23;;;12.40;;
28577;SDS011;15769;52.248;15.818;2022-11-02T01:47:28;16.77;;;10.38;;
28577;SDS011;15769;52.248;15.818;2022-11-02T01:52:36;19.58;;;12.80;;
28577;SDS011;15769;52.248;15.818;2022-11-02T01:57:39;15.38;;;10.70;;
28577;SDS011;15769;52.248;15.818;2022-11-02T02:03:04;15.18;;;11.07;;
28577;SDS011;15769;52.248;15.818;2022-11-02T02:08:10;16.35;;;11.38;;
28577;SDS011;15769;52.248;15.818;2022-11-02T02:13:14;20.42;;;11.73;;
28577;SDS011;15769;52.248;15.818;2022-11-02T02:18:27;17.65;;;12.18;;
28577;SDS011;15769;52.248;15.818;2022-11-02T02:29:22;20.90;;;12.15;;
28577;SDS011;15769;52.248;15.818;2022-11-02T02:50:40;16.80;;;12.02;;
28577;SDS011;15769;52.248;15.818;2022-11-02T02:55:46;22.10;;;11.38;;
28577;SDS011;15769;52.248;15.818;2022-11-02T03:00:55;17.17;;;11.65;;
28577;SDS011;15769;52.248;15.818;2022-11-02T03:06:00;17.38;;;10.43;;
28577;SDS011;15769;52.248;15.818;2022-11-02T03:16:34;15.90;;;11.05;;
28577;SDS011;15769;52.248;15.818;2022-11-02T03:22:05;15.23;;;10.20;;
28577;SDS011;15769;52.248;15.818;2022-11-02T03:32:24;15.00;;;10.88;;
28577;SDS011;15769;52.248;15.818;2022-11-02T03:37:32;16.85;;;10.52;;
28577;SDS011;15769;52.248;15.818;2022-11-02T03:42:38;15.88;;;10.32;;
28577;SDS011;15769;52.248;15.818;2022-11-02T03:47:48;16.05;;;10.77;;
28577;SDS011;15769;52.248;15.818;2022-11-02T03:52:55;14.52;;;10.00;;
28577;SDS011;15769;52.248;15.818;2022-11-02T03:58:01;18.08;;;11.13;;
28577;SDS011;15769;52.248;15.818;2022-11-02T04:03:06;18.00;;;11.32;;
28577;SDS011;15769;52.248;15.818;2022-11-02T04:08:14;15.32;;;10.73;;
28577;SDS011;15769;52.248;15.818;2022-11-02T04:13:30;15.68;;;10.07;;
28577;SDS011;15769;52.248;15.818;2022-11-02T04:24:31;16.83;;;9.43;;
28577;SDS011;15769;52.248;15.818;2022-11-02T04:29:53;13.80;;;8.95;;
28577;SDS011;15769;52.248;15.818;2022-11-02T04:35:05;15.17;;;7.87;;
28577;SDS011;15769;52.248;15.818;2022-11-02T04:40:09;11.02;;;7.25;;
28577;SDS011;15769;52.248;15.818;2022-11-02T04:45:12;10.70;;;7.13;;
28577;SDS011;15769;52.248;15.818;2022-11-02T04:55:18;8.77;;;5.85;;
28577;SDS011;15769;52.248;15.818;2022-11-02T05:00:21;10.40;;;6.57;;
28577;SDS011;15769;52.248;15.818;2022-11-02T05:05:25;11.73;;;6.35;;
28577;SDS011;15769;52.248;15.818;2022-11-02T05:10:31;8.77;;;6.00;;
28577;SDS011;15769;52.248;15.818;2022-11-02T05:15:37;12.35;;;6.40;;
28577;SDS011;15769;52.248;15.818;2022-11-02T05:20:41;13.10;;;6.45;;
28577;SDS011;15769;52.248;15.818;2022-11-02T05:25:57;10.20;;;5.77;;
28577;SDS011;15769;52.248;15.818;2022-11-02T05:31:03;17.25;;;12.13;;
28577;SDS011;15769;52.248;15.818;2022-11-02T05:36:07;20.63;;;14.13;;
28577;SDS011;15769;52.248;15.818;2022-11-02T05:41:13;10.70;;;7.45;;
28577;SDS011;15769;52.248;15.818;2022-11-02T05:51:21;8.98;;;5.28;;
28577;SDS011;15769;52.248;15.818;2022-11-02T05:56:23;6.80;;;4.47;;
28577;SDS011;15769;52.248;15.818;2022-11-02T06:01:28;6.93;;;4.60;;
28577;SDS011;15769;52.248;15.818;2022-11-02T06:06:30;5.45;;;4.15;;
28577;SDS011;15769;52.248;15.818;2022-11-02T06:11:37;6.22;;;3.90;;
28577;SDS011;15769;52.248;15.818;2022-11-02T06:16:39;7.10;;;4.85;;
28577;SDS011;15769;52.248;15.818;2022-11-02T06:27:07;8.65;;;5.18;;
28577;SDS011;15769;52.248;15.818;2022-11-02T06:32:10;6.97;;;4.70;;
28577;SDS011;15769;52.248;15.818;2022-11-02T06:37:13;6.53;;;4.50;;
28577;SDS011;15769;52.248;15.818;2022-11-02T06:42:16;8.90;;;5.30;;
28577;SDS011;15769;52.248;15.818;2022-11-02T06:47:18;8.02;;;4.68;;
28577;SDS011;15769;52.248;15.818;2022-11-02T06:52:21;7.20;;;4.60;;
28577;SDS011;15769;52.248;15.818;2022-11-02T06:57:24;7.60;;;4.50;;
28577;SDS011;15769;52.248;15.818;2022-11-02T07:02:26;10.13;;;5.65;;
28577;SDS011;15769;52.248;15.818;2022-11-02T07:07:38;11.80;;;5.10;;
28577;SDS011;15769;52.248;15.818;2022-11-02T07:12:40;9.38;;;5.20;;
28577;SDS011;15769;52.248;15.818;2022-11-02T07:17:42;8.38;;;4.70;;
28577;SDS011;15769;52.248;15.818;2022-11-02T07:22:52;7.50;;;4.60;;
28577;SDS011;15769;52.248;15.818;2022-11-02T07:27:58;25.17;;;13.02;;
28577;SDS011;15769;52.248;15.818;2022-11-02T07:38:33;11.82;;;5.22;;
28577;SDS011;15769;52.248;15.818;2022-11-02T07:43:35;11.57;;;4.60;;
28577;SDS011;15769;52.248;15.818;2022-11-02T07:49:08;27.80;;;20.52;;
28577;SDS011;15769;52.248;15.818;2022-11-02T07:54:10;10.97;;;5.63;;
28577;SDS011;15769;52.248;15.818;2022-11-02T07:59:13;6.38;;;3.90;;
28577;SDS011;15769;52.248;15.818;2022-11-02T08:04:15;9.13;;;5.93;;
28577;SDS011;15769;52.248;15.818;2022-11-02T08:09:17;15.02;;;10.40;;
28577;SDS011;15769;52.248;15.818;2022-11-02T08:14:40;16.70;;;7.80;;
28577;SDS011;15769;52.248;15.818;2022-11-02T08:19:43;13.68;;;9.18;;
28577;SDS011;15769;52.248;15.818;2022-11-02T08:24:46;25.63;;;15.73;;
28577;SDS011;15769;52.248;15.818;2022-11-02T08:29:48;33.40;;;24.48;;
28577;SDS011;15769;52.248;15.818;2022-11-02T08:34:50;13.18;;;7.63;;
28577;SDS011;15769;52.248;15.818;2022-11-02T08:39:53;12.40;;;7.63;;
28577;SDS011;15769;52.248;15.818;2022-11-02T08:44:56;11.10;;;5.90;;
28577;SDS011;15769;52.248;15.818;2022-11-02T08:50:00;8.15;;;4.60;;
28577;SDS011;15769;52.248;15.818;2022-11-02T08:55:02;8.95;;;4.65;;
28577;SDS011;15769;52.248;15.818;2022-11-02T09:00:09;7.15;;;3.50;;
28577;SDS011;15769;52.248;15.818;2022-11-02T09:05:15;6.80;;;3.60;;
28577;SDS011;15769;52.248;15.818;2022-11-02T09:10:19;8.05;;;3.45;;
28577;SDS011;15769;52.248;15.818;2022-11-02T09:15:21;6.65;;;2.63;;
28577;SDS011;15769;52.248;15.818;2022-11-02T09:25:26;7.73;;;2.70;;
28577;SDS011;15769;52.248;15.818;2022-11-02T09:30:28;7.40;;;3.17;;
28577;SDS011;15769;52.248;15.818;2022-11-02T09:35:32;16.70;;;10.73;;
28577;SDS011;15769;52.248;15.818;2022-11-02T09:40:39;11.55;;;7.20;;
28577;SDS011;15769;52.248;15.818;2022-11-02T09:45:59;8.43;;;3.67;;
28577;SDS011;15769;52.248;15.818;2022-11-02T09:51:07;7.93;;;3.60;;
28577;SDS011;15769;52.248;15.818;2022-11-02T09:56:13;9.95;;;4.60;;
28577;SDS011;15769;52.248;15.818;2022-11-02T10:07:16;7.70;;;3.92;;
28577;SDS011;15769;52.248;15.818;2022-11-02T10:17:52;7.90;;;5.47;;
28577;SDS011;15769;52.248;15.818;2022-11-02T10:23:01;7.82;;;2.92;;
28577;SDS011;15769;52.248;15.818;2022-11-02T10:28:15;5.75;;;2.53;;
28577;SDS011;15769;52.248;15.818;2022-11-02T10:33:24;10.98;;;4.32;;
28577;SDS011;15769;52.248;15.818;2022-11-02T10:54:49;6.93;;;2.65;;
28577;SDS011;15769;52.248;15.818;2022-11-02T11:05:27;7.25;;;3.00;;
28577;SDS011;15769;52.248;15.818;2022-11-02T11:10:32;11.93;;;5.10;;
28577;SDS011;15769;52.248;15.818;2022-11-02T11:15:37;11.75;;;4.60;;
28577;SDS011;15769;52.248;15.818;2022-11-02T11:20:48;10.32;;;4.10;;
28577;SDS011;15769;52.248;15.818;2022-11-02T11:25:59;6.72;;;2.00;;
28577;SDS011;15769;52.248;15.818;2022-11-02T11:31:13;6.15;;;2.83;;
28577;SDS011;15769;52.248;15.818;2022-11-02T11:36:27;8.38;;;3.03;;
28577;SDS011;15769;52.248;15.818;2022-11-02T11:41:32;5.32;;;1.90;;
28577;SDS011;15769;52.248;15.818;2022-11-02T11:46:42;8.00;;;2.00;;
28577;SDS011;15769;52.248;15.818;2022-11-02T11:51:47;3.88;;;1.63;;
28577;SDS011;15769;52.248;15.818;2022-11-02T11:56:52;10.90;;;2.40;;
28577;SDS011;15769;52.248;15.818;2022-11-02T12:02:24;8.45;;;2.25;;
28577;SDS011;15769;52.248;15.818;2022-11-02T12:12:51;7.93;;;1.90;;
28577;SDS011;15769;52.248;15.818;2022-11-02T12:18:18;5.70;;;2.10;;
28577;SDS011;15769;52.248;15.818;2022-11-02T12:23:55;6.78;;;2.13;;
28577;SDS011;15769;52.248;15.818;2022-11-02T12:34:56;7.85;;;2.60;;
28577;SDS011;15769;52.248;15.818;2022-11-02T12:40:23;4.07;;;1.73;;
28577;SDS011;15769;52.248;15.818;2022-11-02T12:45:45;6.30;;;2.50;;
28577;SDS011;15769;52.248;15.818;2022-11-02T12:56:18;6.75;;;1.85;;
28577;SDS011;15769;52.248;15.818;2022-11-02T13:01:23;5.82;;;1.80;;
28577;SDS011;15769;52.248;15.818;2022-11-02T13:06:30;8.20;;;2.60;;
28577;SDS011;15769;52.248;15.818;2022-11-02T13:11:50;7.88;;;2.10;;
28577;SDS011;15769;52.248;15.818;2022-11-02T13:17:09;4.95;;;1.90;;
28577;SDS011;15769;52.248;15.818;2022-11-02T13:22:22;4.72;;;1.67;;
28577;SDS011;15769;52.248;15.818;2022-11-02T13:27:30;5.25;;;1.88;;
28577;SDS011;15769;52.248;15.818;2022-11-02T13:32:39;6.05;;;2.00;;
28577;SDS011;15769;52.248;15.818;2022-11-02T13:37:45;8.55;;;2.00;;
28577;SDS011;15769;52.248;15.818;2022-11-02T13:48:28;5.50;;;2.83;;
28577;SDS011;15769;52.248;15.818;2022-11-02T13:53:39;10.48;;;3.70;;
28577;SDS011;15769;52.248;15.818;2022-11-02T13:58:57;8.40;;;3.70;;
28577;SDS011;15769;52.248;15.818;2022-11-02T14:04:03;7.25;;;3.08;;
28577;SDS011;15769;52.248;15.818;2022-11-02T14:09:08;12.82;;;6.40;;
28577;SDS011;15769;52.248;15.818;2022-11-02T14:19:23;6.75;;;3.60;;
28577;SDS011;15769;52.248;15.818;2022-11-02T14:45:52;12.95;;;6.55;;
28577;SDS011;15769;52.248;15.818;2022-11-02T14:51:15;13.48;;;6.38;;
28577;SDS011;15769;52.248;15.818;2022-11-02T14:56:20;10.65;;;5.15;;
28577;SDS011;15769;52.248;15.818;2022-11-02T15:01:23;6.00;;;3.10;;
28577;SDS011;15769;52.248;15.818;2022-11-02T15:06:26;6.53;;;2.70;;
28577;SDS011;15769;52.248;15.818;2022-11-02T15:16:52;27.83;;;13.48;;
28577;SDS011;15769;52.248;15.818;2022-11-02T15:22:18;38.47;;;16.50;;
28577;SDS011;15769;52.248;15.818;2022-11-02T15:27:34;40.17;;;18.10;;
28577;SDS011;15769;52.248;15.818;2022-11-02T15:32:39;28.77;;;13.88;;
28577;SDS011;15769;52.248;15.818;2022-11-02T15:37:46;22.73;;;11.07;;
28577;SDS011;15769;52.248;15.818;2022-11-02T15:48:55;28.38;;;10.25;;
28577;SDS011;15769;52.248;15.818;2022-11-02T16:04:58;29.17;;;12.95;;
28577;SDS011;15769;52.248;15.818;2022-11-02T16:15:26;32.08;;;15.60;;
28577;SDS011;15769;52.248;15.818;2022-11-02T16:20:32;23.60;;;11.93;;
28577;SDS011;15769;52.248;15.818;2022-11-02T16:25:36;38.53;;;19.55;;
28577;SDS011;15769;52.248;15.818;2022-11-02T16:30:42;37.70;;;16.42;;
28577;SDS011;15769;52.248;15.818;2022-11-02T16:35:46;33.25;;;15.32;;
28577;SDS011;15769;52.248;15.818;2022-11-02T16:40:49;32.90;;;14.73;;
28577;SDS011;15769;52.248;15.818;2022-11-02T16:46:13;38.05;;;18.13;;
28577;SDS011;15769;52.248;15.818;2022-11-02T16:51:16;41.60;;;23.10;;
28577;SDS011;15769;52.248;15.818;2022-11-02T17:01:35;57.03;;;31.75;;
28577;SDS011;15769;52.248;15.818;2022-11-02T17:06:40;77.10;;;36.78;;
28577;SDS011;15769;52.248;15.818;2022-11-02T17:11:43;85.35;;;39.35;;
28577;SDS011;15769;52.248;15.818;2022-11-02T17:22:11;48.80;;;21.65;;
28577;SDS011;15769;52.248;15.818;2022-11-02T17:27:26;66.32;;;28.30;;
28577;SDS011;15769;52.248;15.818;2022-11-02T17:32:29;67.15;;;29.83;;
28577;SDS011;15769;52.248;15.818;2022-11-02T17:37:32;54.65;;;23.70;;
28577;SDS011;15769;52.248;15.818;2022-11-02T17:42:49;50.87;;;24.93;;
28577;SDS011;15769;52.248;15.818;2022-11-02T17:48:28;41.77;;;20.17;;
28577;SDS011;15769;52.248;15.818;2022-11-02T17:53:31;26.48;;;13.98;;
28577;SDS011;15769;52.248;15.818;2022-11-02T17:58:33;22.60;;;10.80;;
28577;SDS011;15769;52.248;15.818;2022-11-02T18:03:37;35.20;;;16.98;;
28577;SDS011;15769;52.248;15.818;2022-11-02T18:08:40;50.78;;;24.63;;
28577;SDS011;15769;52.248;15.818;2022-11-02T18:14:01;47.90;;;27.73;;
28577;SDS011;15769;52.248;15.818;2022-11-02T18:19:06;41.45;;;22.80;;
28577;SDS011;15769;52.248;15.818;2022-11-02T18:29:33;52.25;;;24.90;;
28577;SDS011;15769;52.248;15.818;2022-11-02T18:34:38;55.47;;;26.85;;
28577;SDS011;15769;52.248;15.818;2022-11-02T18:39:40;61.80;;;27.90;;
28577;SDS011;15769;52.248;15.818;2022-11-02T18:44:58;46.17;;;22.98;;
28577;SDS011;15769;52.248;15.818;2022-11-02T18:50:04;38.97;;;18.85;;
28577;SDS011;15769;52.248;15.818;2022-11-02T18:55:09;41.63;;;20.23;;
28577;SDS011;15769;52.248;15.818;2022-11-02T19:05:15;44.38;;;21.10;;
28577;SDS011;15769;52.248;15.818;2022-11-02T19:10:36;47.13;;;22.13;;
28577;SDS011;15769;52.248;15.818;2022-11-02T19:15:40;42.42;;;19.95;;
28577;SDS011;15769;52.248;15.818;2022-11-02T19:20:43;38.47;;;20.90;;
28577;SDS011;15769;52.248;15.818;2022-11-02T19:25:49;41.50;;;20.58;;
28577;SDS011;15769;52.248;15.818;2022-11-02T19:30:52;53.58;;;25.85;;
28577;SDS011;15769;52.248;15.818;2022-11-02T19:35:55;63.22;;;32.10;;
28577;SDS011;15769;52.248;15.818;2022-11-02T19:41:02;49.80;;;25.90;;
28577;SDS011;15769;52.248;15.818;2022-11-02T19:46:09;39.40;;;18.65;;
28577;SDS011;15769;52.248;15.818;2022-11-02T19:51:17;51.10;;;22.60;;
28577;SDS011;15769;52.248;15.818;2022-11-02T19:56:24;106.78;;;43.63;;
28577;SDS011;15769;52.248;15.818;2022-11-02T20:01:27;141.18;;;52.47;;
28577;SDS011;15769;52.248;15.818;2022-11-02T20:06:33;172.70;;;54.17;;
28577;SDS011;15769;52.248;15.818;2022-11-02T20:11:36;150.82;;;48.95;;
28577;SDS011;15769;52.248;15.818;2022-11-02T20:16:40;163.35;;;56.63;;
28577;SDS011;15769;52.248;15.818;2022-11-02T20:21:45;195.23;;;67.43;;
28577;SDS011;15769;52.248;15.818;2022-11-02T20:26:48;230.48;;;76.93;;
28577;SDS011;15769;52.248;15.818;2022-11-02T20:37:11;199.00;;;65.80;;
28577;SDS011;15769;52.248;15.818;2022-11-02T20:42:13;161.45;;;55.53;;
28577;SDS011;15769;52.248;15.818;2022-11-02T20:47:16;242.90;;;79.10;;
28577;SDS011;15769;52.248;15.818;2022-11-02T20:52:21;238.32;;;83.05;;
28577;SDS011;15769;52.248;15.818;2022-11-02T20:57:25;201.30;;;71.47;;
28577;SDS011;15769;52.248;15.818;2022-11-02T21:02:30;215.75;;;80.00;;
28577;SDS011;15769;52.248;15.818;2022-11-02T21:07:33;230.85;;;87.13;;
28577;SDS011;15769;52.248;15.818;2022-11-02T21:12:35;274.23;;;96.03;;
28577;SDS011;15769;52.248;15.818;2022-11-02T21:17:56;362.08;;;124.60;;
28577;SDS011;15769;52.248;15.818;2022-11-02T21:28:03;161.82;;;61.17;;
28577;SDS011;15769;52.248;15.818;2022-11-02T21:33:05;124.28;;;48.30;;
28577;SDS011;15769;52.248;15.818;2022-11-02T21:38:08;121.37;;;45.20;;
28577;SDS011;15769;52.248;15.818;2022-11-02T21:43:13;93.78;;;35.95;;
28577;SDS011;15769;52.248;15.818;2022-11-02T21:48:16;73.78;;;29.42;;
28577;SDS011;15769;52.248;15.818;2022-11-02T21:53:20;69.10;;;29.20;;
28577;SDS011;15769;52.248;15.818;2022-11-02T21:58:26;88.15;;;36.53;;
28577;SDS011;15769;52.248;15.818;2022-11-02T22:03:28;66.13;;;28.05;;
28577;SDS011;15769;52.248;15.818;2022-11-02T22:08:31;47.92;;;20.73;;
28577;SDS011;15769;52.248;15.818;2022-11-02T22:13:39;41.35;;;17.60;;
28577;SDS011;15769;52.248;15.818;2022-11-02T22:18:43;51.95;;;21.38;;
28577;SDS011;15769;52.248;15.818;2022-11-02T22:23:47;47.63;;;20.23;;
28577;SDS011;15769;52.248;15.818;2022-11-02T22:28:50;40.97;;;15.38;;
28577;SDS011;15769;52.248;15.818;2022-11-02T22:33:53;31.45;;;13.63;;
28577;SDS011;15769;52.248;15.818;2022-11-02T22:38:57;37.20;;;16.55;;
28577;SDS011;15769;52.248;15.818;2022-11-02T22:49:07;42.83;;;17.80;;
28577;SDS011;15769;52.248;15.818;2022-11-02T22:59:16;24.17;;;11.38;;
28577;SDS011;15769;52.248;15.818;2022-11-02T23:04:19;19.02;;;9.57;;
28577;SDS011;15769;52.248;15.818;2022-11-02T23:09:21;20.38;;;9.50;;
28577;SDS011;15769;52.248;15.818;2022-11-02T23:14:25;23.55;;;10.38;;
28577;SDS011;15769;52.248;15.818;2022-11-02T23:19:27;35.67;;;14.65;;
28577;SDS011;15769;52.248;15.818;2022-11-02T23:24:36;32.58;;;13.40;;
28577;SDS011;15769;52.248;15.818;2022-11-02T23:29:59;41.17;;;16.15;;
28577;SDS011;15769;52.248;15.818;2022-11-02T23:35:21;37.30;;;14.77;;
28577;SDS011;15769;52.248;15.818;2022-11-02T23:40:42;32.70;;;13.73;;
28577;SDS011;15769;52.248;15.818;2022-11-02T23:45:44;24.88;;;12.02;;
28577;SDS011;15769;52.248;15.818;2022-11-02T23:50:46;25.83;;;12.57;;
28577;SDS011;15769;52.248;15.818;2022-11-02T23:56:17;27.58;;;11.00;;
